Preview of NWS' New Version of Forecast
This preview is not operational and should not be used for support decisions.

Terminal Aerodrome Forecast (TAF)

Issued by National Weather Service (NWS)

                            
000
FTUS46 KMTR 182334
TAFSTS
TAF
KSTS 182334Z 1900/1924 18010KT P6SM SKC
     FM190400 16004KT P6SM SCT010
     FM190600 16003KT P6SM OVC010
     FM191800 VRB03KT P6SM SCT015
     FM192000 19010KT P6SM SKC=